Brevik Bridge — VRHY7 — position and weather

sailwx.info

Track history (hours):
 
Tides and Currents Weather Stations Pressure Air Temp Water Temp Dewpoint Dewpoint Depression Visibility Wind Speed Wind Dir Waves Ship Positions

Brevik Bridge

Last reported at 2014-Aug-06 05:19 UTC. Time now 2014-Aug-20 20:28 UTC.
Position S 35°02' E 019°43'.
Warning: this ship's position is 14 days out of date.

Length 268 m; draft 11.5 m.

Type: Cargo ship. MMSI: 477866200.

Date/timePositionNaut miles runAvg speedWind from/ knotsBaromVisibWave heightAir tempDewpointWater temp
2014-Aug-06 05:19S 35°02' E 019°43'1515.0
2014-Aug-06 04:18S 34°55' E 019°26'1114.7
2014-Aug-06 03:33S 34°50' E 019°14'1514.6
2014-Aug-06 02:33S 34°44' E 018°58'1414.4
2014-Aug-06 01:33S 34°38' E 018°43'1514.5
2014-Aug-06 00:33S 34°31' E 018°27'1312.8
2014-Aug-05 23:33S 34°20' E 018°19'1714.3
2014-Aug-05 22:23S 34°04' E 018°14'1113.3
2014-Aug-05 21:33S 33°53' E 018°18'7 7.4
2014-Aug-05 20:33S 33°55' E 018°27'0 0.1
2014-Aug-05 19:33S 33°55' E 018°27'0 0.0
2014-Aug-05 18:33S 33°55' E 018°27'0 0.0
2014-Aug-05 17:33S 33°54' E 018°27'0 0.0
2014-Aug-05 16:33S 33°55' E 018°27'0 0.0
2014-Aug-05 15:33S 33°55' E 018°27'0 0.0
2014-Aug-05 14:33S 33°55' E 018°27'0 0.0
2014-Aug-05 13:33S 33°55' E 018°27'0 0.0
2014-Aug-05 12:33S 33°54' E 018°27'0 0.0
2014-Aug-05 11:33S 33°55' E 018°27'0 0.0
2014-Aug-05 10:33S 33°55' E 018°27'0 0.0
2014-Aug-05 09:33S 33°55' E 018°27'0 0.0
2014-Aug-05 08:33S 33°55' E 018°27'0 0.0
2014-Aug-05 07:33S 33°54' E 018°27'0 0.0
2014-Aug-05 06:33S 33°55' E 018°27'0 0.0
2014-Aug-05 05:33S 33°55' E 018°27'0 0.0
2014-Aug-05 04:33S 33°55' E 018°27'0 0.0
2014-Aug-05 03:33S 33°55' E 018°27'0 0.0
2014-Aug-05 02:33S 33°55' E 018°27'0 0.0
2014-Aug-05 01:33S 33°55' E 018°27'0 0.0
2014-Aug-05 00:33S 33°55' E 018°27'0 0.0
2014-Aug-04 23:33S 33°55' E 018°27'0 0.0
2014-Aug-04 22:33S 33°55' E 018°27'0 0.0
2014-Aug-04 21:33S 33°55' E 018°27'0 0.0
2014-Aug-04 20:33S 33°55' E 018°27'0 0.0
2014-Aug-04 19:33S 33°55' E 018°27'0 0.0
2014-Aug-04 18:33S 33°55' E 018°27'0 0.0
2014-Aug-04 17:33S 33°55' E 018°27'0 0.0
2014-Aug-04 16:33S 33°55' E 018°27'0 0.0
2014-Aug-04 15:33S 33°55' E 018°27'0 0.0
2014-Aug-04 14:33S 33°55' E 018°27'0 0.0
2014-Aug-04 13:33S 33°55' E 018°27'0 0.0
2014-Aug-04 12:33S 33°55' E 018°27'2 2.2
2014-Aug-04 11:33S 33°53' E 018°25'3 2.8
2014-Aug-04 10:33S 33°50' E 018°27'0 0.1
2014-Aug-04 09:33S 33°50' E 018°27'0 0.1
2014-Aug-04 08:33S 33°50' E 018°27'0 0.1
2014-Aug-04 07:33S 33°50' E 018°27'0 0.0
2014-Aug-04 06:33S 33°50' E 018°27'0 0.0
2014-Aug-04 05:33S 33°50' E 018°27'0 0.0
2014-Aug-04 04:33S 33°50' E 018°27'0 0.0
2014-Aug-04 03:33S 33°50' E 018°27'0 0.0
2014-Aug-04 02:33S 33°50' E 018°27'0 0.1
2014-Aug-04 01:33S 33°50' E 018°27'0 0.0
2014-Aug-04 00:30S 33°50' E 018°27'0 0.0
2014-Aug-03 23:33S 33°50' E 018°27'0 0.0
2014-Aug-03 22:33S 33°50' E 018°27'0 0.0
2014-Aug-03 21:33S 33°50' E 018°27'0 0.1
2014-Aug-03 20:33S 33°50' E 018°27'0 0.0
2014-Aug-03 19:33S 33°50' E 018°27'0 0.0
2014-Aug-03 18:33S 33°50' E 018°27'0 0.0
2014-Aug-03 17:33S 33°50' E 018°27'28 4.7
2014-Aug-03 11:33S 34°17' E 018°15'8 8.1
2014-Aug-03 10:31S 34°25' E 018°15'8 8.2
2014-Aug-03 09:33S 34°29' E 018°24'8 7.8
2014-Aug-03 08:34S 34°32' E 018°32'8 8.2
2014-Aug-03 07:33S 34°35' E 018°41'8 7.8
2014-Aug-03 06:33S 34°39' E 018°50'10 9.8
2014-Aug-03 05:33S 34°43' E 019°00'1010.3
2014-Aug-03 04:33S 34°47' E 019°12'1410.6
2014-Aug-03 03:12S 34°53' E 019°28'811.0
2014-Aug-03 02:28S 34°57' E 019°37'37112.3
2014-Aug-01 20:17S 33°59' E 027°01'2915.4
2014-Aug-01 18:25S 33°40' E 027°26'1315.0
2014-Aug-01 17:32S 33°31' E 027°38'1814.3
2014-Aug-01 16:18S 33°20' E 027°54'87 9.7
2014-Aug-01 07:24S 32°20' E 029°09'2022.6
2014-Aug-01 06:31S 32°05' E 029°25'14520.8
2014-Jul-31 23:34S 30°09' E 031°05'1817.5
2014-Jul-31 22:33S 29°51' E 031°06'4 4.4
2014-Jul-31 21:33S 29°53' E 031°02'0 0.1
2014-Jul-31 20:33S 29°53' E 031°02'0 0.0
2014-Jul-31 19:33S 29°53' E 031°02'0 0.0
2014-Jul-31 18:33S 29°53' E 031°02'0 0.0
2014-Jul-31 17:33S 29°53' E 031°02'0 0.0
2014-Jul-31 16:33S 29°53' E 031°02'0 0.0
2014-Jul-31 15:32S 29°53' E 031°02'0 0.0
2014-Jul-31 14:33S 29°53' E 031°02'0 0.0
2014-Jul-31 13:33S 29°53' E 031°02'0 0.0
2014-Jul-31 12:33S 29°53' E 031°02'0 0.0
2014-Jul-31 11:33S 29°53' E 031°02'0 0.0
2014-Jul-31 10:33S 29°53' E 031°02'0 0.0
2014-Jul-31 09:33S 29°53' E 031°02'0 0.0
2014-Jul-31 08:33S 29°53' E 031°02'0 0.0
2014-Jul-31 07:33S 29°53' E 031°02'0 0.0
2014-Jul-31 06:33S 29°53' E 031°02'0 0.0
2014-Jul-31 05:33S 29°53' E 031°02'0 0.0
2014-Jul-31 04:33S 29°53' E 031°02'0 0.0
2014-Jul-31 03:33S 29°53' E 031°02'0 0.0
2014-Jul-31 02:33S 29°53' E 031°02'0 0.0
2014-Jul-31 01:33S 29°53' E 031°02'0 0.0
2014-Jul-31 00:33S 29°53' E 031°02'0 0.0
2014-Jul-30 23:33S 29°53' E 031°02'0 0.0
2014-Jul-30 22:33S 29°53' E 031°02'0 0.0
2014-Jul-30 21:33S 29°53' E 031°02'0 0.0
2014-Jul-30 20:33S 29°53' E 031°02'0 0.0
2014-Jul-30 19:33S 29°53' E 031°02'0 0.0
2014-Jul-30 18:33S 29°53' E 031°02'0 0.0
2014-Jul-30 17:33S 29°53' E 031°02'0 0.0
2014-Jul-30 16:33S 29°53' E 031°02'0 0.0
2014-Jul-30 15:33S 29°53' E 031°02'0 0.0
2014-Jul-30 14:33S 29°53' E 031°02'0 0.0
2014-Jul-30 13:33S 29°53' E 031°02'0 0.0
2014-Jul-30 12:33S 29°53' E 031°02'0 0.0
2014-Jul-30 11:33S 29°53' E 031°02'0 0.0
2014-Jul-30 10:33S 29°53' E 031°02'0 0.0
2014-Jul-30 09:33S 29°53' E 031°02'0 0.0
2014-Jul-30 08:33S 29°53' E 031°02'0 0.0
2014-Jul-30 07:33S 29°53' E 031°02'0 0.0
2014-Jul-30 06:33S 29°53' E 031°02'0 0.0
2014-Jul-30 05:33S 29°53' E 031°02'0 0.0
2014-Jul-30 04:33S 29°53' E 031°02'0 0.0
2014-Jul-30 03:33S 29°53' E 031°02'0 0.0
2014-Jul-30 02:33S 29°53' E 031°02'0 0.0
2014-Jul-30 01:33S 29°53' E 031°02'0 0.0
2014-Jul-30 00:33S 29°53' E 031°02'0 0.0
2014-Jul-29 23:32S 29°53' E 031°02'0 0.0
2014-Jul-29 22:33S 29°53' E 031°02'0 0.0
2014-Jul-29 21:33S 29°53' E 031°02'0 0.0
2014-Jul-29 20:33S 29°53' E 031°02'0 0.0
2014-Jul-29 19:33S 29°53' E 031°02'0 0.0
2014-Jul-29 18:33S 29°53' E 031°02'0 0.0
2014-Jul-29 17:33S 29°53' E 031°02'0 0.0
2014-Jul-29 16:33S 29°53' E 031°02'0 0.0
2014-Jul-29 15:33S 29°53' E 031°02'0 0.0
2014-Jul-29 14:33S 29°53' E 031°02'0 0.0
2014-Jul-29 13:33S 29°53' E 031°02'0 0.0
2014-Jul-29 12:33S 29°53' E 031°02'0 0.0
2014-Jul-29 11:33S 29°53' E 031°02'0 0.0
2014-Jul-29 10:33S 29°53' E 031°02'0 0.0
2014-Jul-29 09:33S 29°53' E 031°02'0 0.0
2014-Jul-29 08:33S 29°53' E 031°02'0 0.0
2014-Jul-29 07:33S 29°53' E 031°02'0 0.0
2014-Jul-29 06:33S 29°53' E 031°02'0 0.0
2014-Jul-29 05:33S 29°53' E 031°02'0 0.0
2014-Jul-29 04:33S 29°53' E 031°02'0 0.0
2014-Jul-29 03:33S 29°53' E 031°02'0 0.0
2014-Jul-29 02:33S 29°53' E 031°02'0 0.0
2014-Jul-29 01:33S 29°53' E 031°02'0 0.0
2014-Jul-29 00:33S 29°53' E 031°02'0 0.0
2014-Jul-28 23:33S 29°53' E 031°02'0 0.0
2014-Jul-28 22:33S 29°53' E 031°02'0 0.0
2014-Jul-28 21:33S 29°53' E 031°02'0 0.0
2014-Jul-28 20:33S 29°53' E 031°02'0 0.0
2014-Jul-28 19:33S 29°53' E 031°02'0 0.0
2014-Jul-28 18:33S 29°53' E 031°02'0 0.0
2014-Jul-28 17:33S 29°53' E 031°02'0 0.0
2014-Jul-28 16:33S 29°53' E 031°02'0 0.0
2014-Jul-28 15:33S 29°53' E 031°02'2 1.9
2014-Jul-28 14:33S 29°52' E 031°03'5 4.7
2014-Jul-28 13:33S 29°48' E 031°07'9 9.1
2014-Jul-28 12:33S 29°46' E 031°17'1313.2
2014-Jul-28 11:33S 29°39' E 031°30'2019.7
2014-Jul-28 10:33S 29°36' E 031°53'  
Track history (hours):
 
Tides and Currents Weather Stations Pressure Air Temp Water Temp Dewpoint Dewpoint Depression Visibility Wind Speed Wind Dir Waves Ship Positions

Brevik Bridge

Last reported at 2014-Aug-06 05:19 UTC. Time now 2014-Aug-20 20:28 UTC.
Position S 35°02' E 019°43'.
Warning: this ship's position is 14 days out of date.

Length 268 m; draft 11.5 m.

Type: Cargo ship. MMSI: 477866200.

Date/timePositionNaut miles runAvg speedWind from/ knotsBaromVisibWave heightAir tempDewpointWater temp
2014-Aug-06 05:19S 35°02' E 019°43'1515.0
2014-Aug-06 04:18S 34°55' E 019°26'1114.7
2014-Aug-06 03:33S 34°50' E 019°14'1514.6
2014-Aug-06 02:33S 34°44' E 018°58'1414.4
2014-Aug-06 01:33S 34°38' E 018°43'1514.5
2014-Aug-06 00:33S 34°31' E 018°27'1312.8
2014-Aug-05 23:33S 34°20' E 018°19'1714.3
2014-Aug-05 22:23S 34°04' E 018°14'1113.3
2014-Aug-05 21:33S 33°53' E 018°18'7 7.4
2014-Aug-05 20:33S 33°55' E 018°27'0 0.1
2014-Aug-05 19:33S 33°55' E 018°27'0 0.0
2014-Aug-05 18:33S 33°55' E 018°27'0 0.0
2014-Aug-05 17:33S 33°54' E 018°27'0 0.0
2014-Aug-05 16:33S 33°55' E 018°27'0 0.0
2014-Aug-05 15:33S 33°55' E 018°27'0 0.0
2014-Aug-05 14:33S 33°55' E 018°27'0 0.0
2014-Aug-05 13:33S 33°55' E 018°27'0 0.0
2014-Aug-05 12:33S 33°54' E 018°27'0 0.0
2014-Aug-05 11:33S 33°55' E 018°27'0 0.0
2014-Aug-05 10:33S 33°55' E 018°27'0 0.0
2014-Aug-05 09:33S 33°55' E 018°27'0 0.0
2014-Aug-05 08:33S 33°55' E 018°27'0 0.0
2014-Aug-05 07:33S 33°54' E 018°27'0 0.0
2014-Aug-05 06:33S 33°55' E 018°27'0 0.0
2014-Aug-05 05:33S 33°55' E 018°27'0 0.0
2014-Aug-05 04:33S 33°55' E 018°27'0 0.0
2014-Aug-05 03:33S 33°55' E 018°27'0 0.0
2014-Aug-05 02:33S 33°55' E 018°27'0 0.0
2014-Aug-05 01:33S 33°55' E 018°27'0 0.0
2014-Aug-05 00:33S 33°55' E 018°27'0 0.0
2014-Aug-04 23:33S 33°55' E 018°27'0 0.0
2014-Aug-04 22:33S 33°55' E 018°27'0 0.0
2014-Aug-04 21:33S 33°55' E 018°27'0 0.0
2014-Aug-04 20:33S 33°55' E 018°27'0 0.0
2014-Aug-04 19:33S 33°55' E 018°27'0 0.0
2014-Aug-04 18:33S 33°55' E 018°27'0 0.0
2014-Aug-04 17:33S 33°55' E 018°27'0 0.0
2014-Aug-04 16:33S 33°55' E 018°27'0 0.0
2014-Aug-04 15:33S 33°55' E 018°27'0 0.0
2014-Aug-04 14:33S 33°55' E 018°27'0 0.0
2014-Aug-04 13:33S 33°55' E 018°27'0 0.0
2014-Aug-04 12:33S 33°55' E 018°27'2 2.2
2014-Aug-04 11:33S 33°53' E 018°25'3 2.8
2014-Aug-04 10:33S 33°50' E 018°27'0 0.1
2014-Aug-04 09:33S 33°50' E 018°27'0 0.1
2014-Aug-04 08:33S 33°50' E 018°27'0 0.1
2014-Aug-04 07:33S 33°50' E 018°27'0 0.0
2014-Aug-04 06:33S 33°50' E 018°27'0 0.0
2014-Aug-04 05:33S 33°50' E 018°27'0 0.0
2014-Aug-04 04:33S 33°50' E 018°27'0 0.0
2014-Aug-04 03:33S 33°50' E 018°27'0 0.0
2014-Aug-04 02:33S 33°50' E 018°27'0 0.1
2014-Aug-04 01:33S 33°50' E 018°27'0 0.0
2014-Aug-04 00:30S 33°50' E 018°27'0 0.0
2014-Aug-03 23:33S 33°50' E 018°27'0 0.0
2014-Aug-03 22:33S 33°50' E 018°27'0 0.0
2014-Aug-03 21:33S 33°50' E 018°27'0 0.1
2014-Aug-03 20:33S 33°50' E 018°27'0 0.0
2014-Aug-03 19:33S 33°50' E 018°27'0 0.0
2014-Aug-03 18:33S 33°50' E 018°27'0 0.0
2014-Aug-03 17:33S 33°50' E 018°27'28 4.7
2014-Aug-03 11:33S 34°17' E 018°15'8 8.1
2014-Aug-03 10:31S 34°25' E 018°15'8 8.2
2014-Aug-03 09:33S 34°29' E 018°24'8 7.8
2014-Aug-03 08:34S 34°32' E 018°32'8 8.2
2014-Aug-03 07:33S 34°35' E 018°41'8 7.8
2014-Aug-03 06:33S 34°39' E 018°50'10 9.8
2014-Aug-03 05:33S 34°43' E 019°00'1010.3
2014-Aug-03 04:33S 34°47' E 019°12'1410.6
2014-Aug-03 03:12S 34°53' E 019°28'811.0
2014-Aug-03 02:28S 34°57' E 019°37'37112.3
2014-Aug-01 20:17S 33°59' E 027°01'2915.4
2014-Aug-01 18:25S 33°40' E 027°26'1315.0
2014-Aug-01 17:32S 33°31' E 027°38'1814.3
2014-Aug-01 16:18S 33°20' E 027°54'87 9.7
2014-Aug-01 07:24S 32°20' E 029°09'2022.6
2014-Aug-01 06:31S 32°05' E 029°25'14520.8
2014-Jul-31 23:34S 30°09' E 031°05'1817.5
2014-Jul-31 22:33S 29°51' E 031°06'4 4.4
2014-Jul-31 21:33S 29°53' E 031°02'0 0.1
2014-Jul-31 20:33S 29°53' E 031°02'0 0.0
2014-Jul-31 19:33S 29°53' E 031°02'0 0.0
2014-Jul-31 18:33S 29°53' E 031°02'0 0.0
2014-Jul-31 17:33S 29°53' E 031°02'0 0.0
2014-Jul-31 16:33S 29°53' E 031°02'0 0.0
2014-Jul-31 15:32S 29°53' E 031°02'0 0.0
2014-Jul-31 14:33S 29°53' E 031°02'0 0.0
2014-Jul-31 13:33S 29°53' E 031°02'0 0.0
2014-Jul-31 12:33S 29°53' E 031°02'0 0.0
2014-Jul-31 11:33S 29°53' E 031°02'0 0.0
2014-Jul-31 10:33S 29°53' E 031°02'0 0.0
2014-Jul-31 09:33S 29°53' E 031°02'0 0.0
2014-Jul-31 08:33S 29°53' E 031°02'0 0.0
2014-Jul-31 07:33S 29°53' E 031°02'0 0.0
2014-Jul-31 06:33S 29°53' E 031°02'0 0.0
2014-Jul-31 05:33S 29°53' E 031°02'0 0.0
2014-Jul-31 04:33S 29°53' E 031°02'0 0.0
2014-Jul-31 03:33S 29°53' E 031°02'0 0.0
2014-Jul-31 02:33S 29°53' E 031°02'0 0.0
2014-Jul-31 01:33S 29°53' E 031°02'0 0.0
2014-Jul-31 00:33S 29°53' E 031°02'0 0.0
2014-Jul-30 23:33S 29°53' E 031°02'0 0.0
2014-Jul-30 22:33S 29°53' E 031°02'0 0.0
2014-Jul-30 21:33S 29°53' E 031°02'0 0.0
2014-Jul-30 20:33S 29°53' E 031°02'0 0.0
2014-Jul-30 19:33S 29°53' E 031°02'0 0.0
2014-Jul-30 18:33S 29°53' E 031°02'0 0.0
2014-Jul-30 17:33S 29°53' E 031°02'0 0.0
2014-Jul-30 16:33S 29°53' E 031°02'0 0.0
2014-Jul-30 15:33S 29°53' E 031°02'0 0.0
2014-Jul-30 14:33S 29°53' E 031°02'0 0.0
2014-Jul-30 13:33S 29°53' E 031°02'0 0.0
2014-Jul-30 12:33S 29°53' E 031°02'0 0.0
2014-Jul-30 11:33S 29°53' E 031°02'0 0.0
2014-Jul-30 10:33S 29°53' E 031°02'0 0.0
2014-Jul-30 09:33S 29°53' E 031°02'0 0.0
2014-Jul-30 08:33S 29°53' E 031°02'0 0.0
2014-Jul-30 07:33S 29°53' E 031°02'0 0.0
2014-Jul-30 06:33S 29°53' E 031°02'0 0.0
2014-Jul-30 05:33S 29°53' E 031°02'0 0.0
2014-Jul-30 04:33S 29°53' E 031°02'0 0.0
2014-Jul-30 03:33S 29°53' E 031°02'0 0.0
2014-Jul-30 02:33S 29°53' E 031°02'0 0.0
2014-Jul-30 01:33S 29°53' E 031°02'0 0.0
2014-Jul-30 00:33S 29°53' E 031°02'0 0.0
2014-Jul-29 23:32S 29°53' E 031°02'0 0.0
2014-Jul-29 22:33S 29°53' E 031°02'0 0.0
2014-Jul-29 21:33S 29°53' E 031°02'0 0.0
2014-Jul-29 20:33S 29°53' E 031°02'0 0.0
2014-Jul-29 19:33S 29°53' E 031°02'0 0.0
2014-Jul-29 18:33S 29°53' E 031°02'0 0.0
2014-Jul-29 17:33S 29°53' E 031°02'0 0.0
2014-Jul-29 16:33S 29°53' E 031°02'0 0.0
2014-Jul-29 15:33S 29°53' E 031°02'0 0.0
2014-Jul-29 14:33S 29°53' E 031°02'0 0.0
2014-Jul-29 13:33S 29°53' E 031°02'0 0.0
2014-Jul-29 12:33S 29°53' E 031°02'0 0.0
2014-Jul-29 11:33S 29°53' E 031°02'0 0.0
2014-Jul-29 10:33S 29°53' E 031°02'0 0.0
2014-Jul-29 09:33S 29°53' E 031°02'0 0.0
2014-Jul-29 08:33S 29°53' E 031°02'0 0.0
2014-Jul-29 07:33S 29°53' E 031°02'0 0.0
2014-Jul-29 06:33S 29°53' E 031°02'0 0.0
2014-Jul-29 05:33S 29°53' E 031°02'0 0.0
2014-Jul-29 04:33S 29°53' E 031°02'0 0.0
2014-Jul-29 03:33S 29°53' E 031°02'0 0.0
2014-Jul-29 02:33S 29°53' E 031°02'0 0.0
2014-Jul-29 01:33S 29°53' E 031°02'0 0.0
2014-Jul-29 00:33S 29°53' E 031°02'0 0.0
2014-Jul-28 23:33S 29°53' E 031°02'0 0.0
2014-Jul-28 22:33S 29°53' E 031°02'0 0.0
2014-Jul-28 21:33S 29°53' E 031°02'0 0.0
2014-Jul-28 20:33S 29°53' E 031°02'0 0.0
2014-Jul-28 19:33S 29°53' E 031°02'0 0.0
2014-Jul-28 18:33S 29°53' E 031°02'0 0.0
2014-Jul-28 17:33S 29°53' E 031°02'0 0.0
2014-Jul-28 16:33S 29°53' E 031°02'0 0.0
2014-Jul-28 15:33S 29°53' E 031°02'2 1.9
2014-Jul-28 14:33S 29°52' E 031°03'5 4.7
2014-Jul-28 13:33S 29°48' E 031°07'9 9.1
2014-Jul-28 12:33S 29°46' E 031°17'1313.2
2014-Jul-28 11:33S 29°39' E 031°30'2019.7
2014-Jul-28 10:33S 29°36' E 031°53'  

Dump ship's entire track history